Station: Dubbo  

  Atmospheric Gas Attenuation - ITU Rec 676-11   ----------------- dB/100km -----------------
Date Time Temp RH % AH g/m3 Dew Point Wind Direction Speed kph Gust kph Barometer mB Rainfall Since 9am 24GHz 47GHz 76GHz 122GHz 134GHz 241GHz
08/05 12:30 15.9 52 7.04 6.1 20 28 1023.7 0 16.2 23.3 33.3 86.9 77.0 263.7
08/05 12:20 14.8 52 6.59 5.1 26 30 1023.9 0 15.3 22.9 32.1 83.6 72.6 248.0
08/05 12:10 15.5 52 6.87 5.7 17 24 1024 0 15.8 23.1 32.8 85.7 75.4 257.8
08/05 12:00 14.6 53 6.63 5.1 28 37 1024.3 0 15.4 23.0 32.3 84.3 73.3 250.5
08/05 11:50 14.4 54 6.68 5.2 24 28 1024.4 0 15.5 23.1 32.6 85.0 74.1 253.3
08/05 11:40 14.6 52 6.51 4.9 24 28 1024.4 0 15.1 22.8 31.9 83.1 71.8 245.3
08/05 11:30 15.4 51 6.7 5.3 24 35 1024.5 0 15.5 22.9 32.3 84.1 73.4 251.0
08/05 11:20 15.2 51 6.62 5.1 32 35 1024.6 0 15.3 22.9 32.0 83.6 72.6 248.2
08/05 11:10 14.6 50 6.26 4.3 22 28 1024.7 0 14.6 22.5 31.0 80.7 68.8 234.8
08/05 11:00 14.3 50 6.14 4 24 32 1024.7 0 14.3 22.4 30.6 79.8 67.6 230.6
08/05 10:50 14.3 51 6.27 4.3 26 30 1024.9 0 14.6 22.6 31.1 81.1 69.2 236.1
08/05 10:40 14.5 52 6.47 4.8 24 33 1025 0 15.0 22.8 31.8 82.9 71.5 244.1
08/05 10:30 13.9 54 6.47 4.8 26 37 1025.1 0 15.0 23.0 32.0 83.5 72.0 245.9
08/05 10:20 13.8 55 6.55 4.9 24 32 1025.2 0 15.2 23.1 32.4 84.4 73.1 249.7
08/05 10:10 13.3 55 6.35 4.5 24 30 1025.2 0 14.8 22.9 31.8 82.9 71.1 242.6
08/05 10:00 12.9 57 6.42 4.6 20 33 1025.3 0 15.0 23.2 32.2 84.1 72.3 246.9
08/05 09:50 12.8 58 6.5 4.8 19 24 1025.2 0 15.2 23.3 32.6 85.0 73.4 250.6
08/05 09:40 12 58 6.18 4 26 28 1025.1 0 14.5 23.0 31.7 82.6 70.1 239.1
08/05 09:30 11.4 60 6.16 3.9 20 32 1025.1 0 14.5 23.1 31.8 83.0 70.4 240.0
08/05 09:20 11.2 61 6.18 4 20 24 1025 0 14.5 23.2 32.0 83.4 70.9 241.5
08/05 09:10 10.9 62 6.17 3.9 22 26 1025 0 14.5 23.3 32.1 83.6 71.0 241.9
08/05 09:00 10.2 65 6.19 3.9 13 20 1024.9 0 14.6 23.5 32.4 84.5 71.9 244.9
08/05 08:50 9.3 67 6.02 3.5 17 20 1024.8 0 14.3 23.4 32.1 83.7 70.5 240.0
08/05 08:40 8.7 71 6.14 3.7 11 13 1024.8 0 14.5 23.8 32.8 85.6 72.6 247.3
08/05 08:30 7.9 74 6.08 3.6 7 11 1024.9 0 14.4 23.9 32.9 85.8 72.6 247.1
08/05 08:20 7 76 5.89 3.1 9 11 1024.8 0 14.1 23.8 32.5 84.8 70.9 241.1
08/05 08:10 6.3 79 5.85 2.9 9 9 1024.9 0 14.0 24.0 32.7 85.1 71.0 241.4
08/05 08:00 5.5 81 5.69 2.5 6 7 1024.9 0 13.7 23.9 32.3 84.3 69.6 236.3
08/05 07:50 5.1 82 5.61 2.3 7 9 1024.8 0 13.5 23.9 32.2 83.8 68.9 233.8
08/05 07:40 4.7 84 5.6 2.2 7 7 1024.7 0 13.5 24.0 32.3 84.1 69.1 234.5
08/05 07:30 4.2 90 5.8 2.7 9 11 1024.8 0 14.0 24.5 33.3 86.9 72.3 245.5
08/05 07:20 3.1 100 5.99 3.1 7 9 1024.8 0 14.4 25.1 34.6 90.2 76.0 258.2
08/05 07:10 2.2 100 5.64 2.2 6 7 1024.8 0 13.7 24.7 33.5 87.3 72.0 244.0
08/05 07:00 1.8 100 5.49 1.8 2 7 1024.7 0 13.4 24.6 33.0 86.1 70.2 238.0
08/05 06:50 1.7 91 4.96 0.4 2 7 1024.7 0 12.3 23.7 30.9 80.3 63.1 212.7
08/05 06:40 1.7 98 5.34 1.4 0 0 1024.7 0 13.1 24.4 32.4 84.5 68.3 231.0
08/05 06:30 1.9 100 5.53 1.9 0 0 1024.7 0 13.5 24.6 33.2 86.4 70.7 239.6
08/05 06:20 2.1 100 5.6 2.1 0 0 1024.6 0 13.6 24.7 33.4 87.0 71.5 242.4
08/05 06:10 1.7 93 5.07 0.7 0 0 1024.5 0 12.5 23.9 31.3 81.5 64.5 217.9
08/05 06:00 2.4 94 5.37 1.5 6 6 1024.5 0 13.1 24.2 32.3 84.1 68.0 230.3
08/05 05:50 2.3 95 5.39 1.6 6 6 1024.5 0 13.2 24.3 32.4 84.4 68.4 231.6
08/05 05:40 2.1 95 5.32 1.4 9 9 1024.4 0 13.0 24.2 32.2 83.8 67.6 228.8
08/05 05:30 2 94 5.23 1.1 11 11 1024.3 0 12.8 24.1 31.9 82.9 66.5 224.7
08/05 05:20 2.4 87 4.97 0.5 11 11 1024.3 0 12.3 23.5 30.6 79.7 62.6 211.3
08/05 05:10 2.9 88 5.2 1.1 6 6 1024.2 0 12.7 23.8 31.4 81.6 65.3 220.7
08/05 05:00 2.4 92 5.26 1.2 9 11 1024.2 0 12.9 24.0 31.8 82.8 66.5 225.0
08/05 04:50 2.2 87 4.91 0.3 11 11 1024.2 0 12.1 23.5 30.5 79.2 61.9 208.9
08/05 04:40 2.9 83 4.91 0.3 11 13 1024.2 0 12.1 23.3 30.2 78.5 61.4 207.1
08/05 04:30 4.1 81 5.19 1.1 13 15 1023.9 0 12.7 23.4 30.8 80.3 64.1 216.9
08/05 04:20 4 82 5.22 1.2 13 15 1023.9 0 12.7 23.5 31.0 80.7 64.6 218.5
08/05 04:10 3.5 87 5.35 1.5 13 15 1023.9 0 13.0 23.9 31.7 82.6 66.8 226.1
08/05 04:00 2.9 85 5.02 0.6 9 11 1024.1 0 12.4 23.5 30.6 79.7 62.9 212.2
08/05 03:50 2.6 83 4.81 0 9 11 1024.1 0 11.9 23.2 29.9 77.7 60.3 203.2
08/05 03:40 2.7 84 4.9 0.3 9 9 1024.2 0 12.1 23.4 30.2 78.6 61.4 207.1
08/05 03:30 2.6 81 4.69 -0.3 6 9 1024.2 0 11.7 23.0 29.4 76.4 58.7 197.6
08/05 03:20 3.7 78 4.86 0.2 6 7 1024.3 0 12.0 23.0 29.7 77.2 60.1 202.7
08/05 03:10 3.3 80 4.86 0.2 6 7 1024.3 0 12.0 23.1 29.8 77.6 60.4 203.7
08/05 03:00 3.1 82 4.91 0.3 7 9 1024.3 0 12.1 23.3 30.1 78.3 61.2 206.6
08/05 02:50 2.9 81 4.79 0 9 9 1024.5 0 11.9 23.1 29.7 77.2 59.8 201.5
08/05 02:40 3.5 78 4.8 0 7 9 1024.4 0 11.9 23.0 29.5 76.7 59.5 200.5
08/05 02:30 3.9 79 4.99 0.6 7 9 1024.4 0 12.3 23.2 30.1 78.4 61.7 208.2
08/05 02:20 3.2 83 5.01 0.6 9 9 1024.5 0 12.3 23.4 30.5 79.3 62.5 211.0
08/05 02:10 2.8 81 4.76 -0.1 11 13 1024.5 0 11.8 23.1 29.6 77.0 59.5 200.4
08/05 02:00 2.9 81 4.79 0 6 9 1024.6 0 11.9 23.1 29.7 77.2 59.8 201.6
08/05 01:50 3.6 79 4.89 0.3 6 6 1024.6 0 12.0 23.1 29.9 77.6 60.6 204.4
08/05 01:40 3.7 79 4.93 0.4 9 11 1024.6 0 12.1 23.2 30.0 78.0 61.1 206.0
08/05 01:30 3.6 77 4.77 0 11 13 1024.6 0 11.8 22.9 29.4 76.4 59.0 198.9
08/05 01:20 4.2 75 4.84 0.2 11 11 1024.6 0 11.9 22.9 29.4 76.5 59.5 200.6
08/05 01:10 4.4 74 4.84 0.2 13 15 1024.6 0 11.9 22.8 29.4 76.3 59.3 200.1
08/05 01:00 4.2 76 4.9 0.4 13 15 1024.5 0 12.1 23.0 29.7 77.1 60.3 203.3
08/05 00:50 3.8 78 4.9 0.3 13 13 1024.5 0 12.1 23.1 29.8 77.5 60.6 204.3
08/05 00:40 3.1 78 4.67 -0.4 13 13 1024.5 0 11.6 22.9 29.2 75.8 58.1 195.5
08/05 00:20 4 74 4.71 -0.2 13 13 1024.6 0 11.6 22.7 29.0 75.3 57.9 195.1
08/05 00:10 4.1 73 4.68 -0.3 9 11 1024.6 0 11.6 22.7 28.9 74.9 57.5 193.5
08/05 00:00 3.9 74 4.68 -0.3 6 9 1024.7 0 11.6 22.7 28.9 75.1 57.6 194.0
07/05 23:50 3.6 76 4.71 -0.2 7 7 1024.6 0 11.7 22.8 29.2 75.7 58.2 196.1
07/05 23:40 4.5 74 4.87 0.3 7 9 1024.7 0 12.0 22.9 29.5 76.5 59.7 201.2
07/05 23:30 3.6 75 4.65 -0.4 6 9 1024.8 0 11.5 22.7 28.9 75.1 57.5 193.4
07/05 23:20 4 74 4.71 -0.2 6 6 1024.7 0 11.6 22.7 29.0 75.3 57.9 195.1
07/05 23:10 4.1 74 4.74 -0.1 9 11 1024.6 0 11.7 22.8 29.1 75.6 58.3 196.3
07/05 23:00 4.2 72 4.64 -0.4 11 13 1024.7 0 11.5 22.6 28.7 74.4 56.9 191.5
07/05 22:50 5.1 68 4.65 -0.3 11 13 1024.7 0 11.5 22.4 28.4 73.7 56.4 189.8
07/05 22:40 4.8 70 4.7 -0.2 11 13 1024.7 0 11.6 22.5 28.7 74.5 57.2 192.7
07/05 22:30 4.4 68 4.44 -1 11 13 1024.7 0 11.1 22.2 27.8 72.2 54.2 182.0
07/05 22:20 5.1 67 4.59 -0.5 9 9 1024.8 0 11.4 22.3 28.2 73.1 55.6 187.1
07/05 22:10 4.8 67 4.5 -0.8 7 7 1024.9 0 11.2 22.2 27.9 72.4 54.7 183.8
07/05 22:00 4.9 66 4.46 -0.9 13 15 1024.8 0 11.1 22.1 27.7 71.9 54.1 181.7
07/05 21:50 5.3 64 4.44 -0.9 9 11 1024.9 0 11.0 22.0 27.5 71.4 53.6 180.0
07/05 21:40 5.3 65 4.51 -0.7 4 6 1025.1 0 11.2 22.1 27.8 72.1 54.5 183.1
07/05 21:30 5.9 61 4.4 -1 7 9 1024.9 0 10.9 21.8 27.2 70.4 52.7 176.9
07/05 21:20 6.2 60 4.41 -1 7 9 1024.9 0 10.9 21.7 27.1 70.3 52.6 176.6
07/05 21:10 6.1 60 4.39 -1.1 9 9 1024.8 0 10.9 21.7 27.1 70.1 52.4 176.0
07/05 21:00 6 60 4.36 -1.2 13 15 1024.6 0 10.8 21.7 27.0 69.9 52.1 174.8
07/05 20:50 6.8 57 4.36 -1.1 9 11 1024.6 0 10.8 21.5 26.7 69.2 51.6 173.1
07/05 20:40 6.6 58 4.38 -1.1 9 11 1024.4 0 10.9 21.6 26.8 69.6 51.9 174.4
07/05 20:30 6.9 57 4.39 -1 15 17 1024.3 0 10.9 21.5 26.8 69.4 51.9 174.2
07/05 20:20 6.9 56 4.31 -1.3 15 15 1024.3 0 10.7 21.4 26.5 68.6 50.9 170.7
07/05 20:10 7.3 54 4.27 -1.4 13 15 1024.3 0 10.6 21.2 26.2 67.9 50.1 168.1
07/05 20:00 7.6 53 4.27 -1.4 13 17 1024.2 0 10.6 21.2 26.1 67.6 49.9 167.5
07/05 19:50 7.8 52 4.25 -1.4 15 15 1024.1 0 10.5 21.1 26.0 67.2 49.6 166.2

Last Refresh: 08-May-2026 12:10:12

Bureau of Meteorology